Time;durP1;ratioP1;P1;durP2;ratioP2;P2;SDS_P1;SDS_P2;PMS_P1;PMS_P2;Temp;Humidity;BMP_temperature;BMP_pressure;BME280_temperature;BME280_humidity;BME280_pressure;Samples;Min_cycle;Max_cycle;Signal;HPM_P1;HPM_P2
2022/06/27 00:00:45;;;;;;;;;3.00;3.00;;;;;18.75;54.69;101177.91;6245008;22;45496;-80
2022/06/27 00:03:10;;;;;;;;;3.67;3.00;;;;;18.72;54.51;101165.50;6217463;22;45416;-80
2022/06/27 00:05:36;;;;;;;;;2.00;2.00;;;;;18.69;54.97;101162.94;6217327;22;45372;-79
2022/06/27 00:08:01;;;;;;;;;4.00;3.00;;;;;18.69;55.26;101162.94;6245287;22;45875;-80
2022/06/27 00:10:28;;;;;;;;;3.00;3.00;;;;;18.67;55.11;101158.56;6244160;22;45331;-81
2022/06/27 00:12:53;;;;;;;;;4.33;4.33;;;;;18.68;55.00;101163.84;6216503;22;47350;-80
2022/06/27 00:15:19;;;;;;;;;5.00;4.00;;;;;18.66;54.80;101163.03;6219128;22;45174;-81
2022/06/27 00:17:44;;;;;;;;;4.00;4.00;;;;;18.66;54.97;101159.50;6248359;22;45241;-81
2022/06/27 00:20:10;;;;;;;;;3.33;2.67;;;;;18.62;55.10;101161.34;6249270;22;45503;-80
2022/06/27 00:22:35;;;;;;;;;3.00;3.00;;;;;18.61;55.17;101164.97;6221711;22;47034;-80
2022/06/27 00:25:01;;;;;;;;;3.00;3.00;;;;;18.60;55.10;101167.66;6246316;22;45374;-81
2022/06/27 00:27:26;;;;;;;;;2.33;2.33;;;;;18.58;55.26;101164.16;6247710;22;45447;-80
2022/06/27 00:29:52;;;;;;;;;4.00;4.00;;;;;18.59;55.25;101172.13;6249212;22;45481;-79
2022/06/27 00:32:17;;;;;;;;;3.67;3.33;;;;;18.59;55.21;101169.44;6247525;22;47868;-80
2022/06/27 00:34:43;;;;;;;;;4.00;4.00;;;;;18.57;55.62;101157.94;6247327;22;45217;-80
2022/06/27 00:37:08;;;;;;;;;7.33;4.00;;;;;18.58;55.53;101156.16;6247400;22;45264;-80
2022/06/27 00:39:34;;;;;;;;;3.33;3.33;;;;;18.55;55.27;101154.47;6220038;22;45355;-81
2022/06/27 00:41:59;;;;;;;;;5.67;3.00;;;;;18.57;55.40;101146.41;6247698;22;46552;-80
2022/06/27 00:44:34;;;;;;;;;7.00;4.00;;;;;18.55;55.63;101153.59;6245615;22;45338;-80
2022/06/27 00:47:01;;;;;;;;;4.00;3.00;;;;;18.51;55.96;101151.00;6220007;22;45391;-80
2022/06/27 00:49:26;;;;;;;;;3.00;3.00;;;;;18.51;55.68;101160.81;6246996;22;45437;-81
2022/06/27 00:51:52;;;;;;;;;4.00;3.00;;;;;18.48;56.14;101158.25;6246764;22;45448;-80
2022/06/27 00:54:18;;;;;;;;;4.33;3.00;;;;;18.47;55.75;101160.03;6246873;22;45105;-80
2022/06/27 00:56:44;;;;;;;;;2.33;2.33;;;;;18.45;56.32;101167.22;6247560;22;45094;-80
2022/06/27 00:59:09;;;;;;;;;4.00;4.00;;;;;18.48;56.25;101171.56;6247738;22;45948;-80
2022/06/27 01:01:35;;;;;;;;;3.00;2.00;;;;;18.44;55.96;101170.81;6247207;22;45331;-80
2022/06/27 01:04:01;;;;;;;;;4.00;3.00;;;;;18.41;56.28;101165.53;6219804;22;45371;-81
2022/06/27 01:06:29;;;;;;;;;2.00;2.00;;;;;18.41;55.98;101176.19;6219789;22;45320;-81
2022/06/27 01:08:55;;;;;;;;;3.33;2.00;;;;;18.39;56.18;101180.72;6245171;22;45336;-80
2022/06/27 01:11:21;;;;;;;;;3.67;3.67;;;;;18.39;56.30;101179.81;6247017;22;45328;-81
2022/06/27 01:13:47;;;;;;;;;3.00;3.00;;;;;18.39;56.07;101179.81;6217620;22;45236;-80
2022/06/27 01:16:13;;;;;;;;;3.67;3.67;;;;;18.37;56.29;101171.91;6219022;22;45160;-80
2022/06/27 01:18:39;;;;;;;;;2.67;2.67;;;;;18.36;56.11;101174.59;6247137;22;45580;-80
2022/06/27 01:21:06;;;;;;;;;3.00;3.00;;;;;18.38;56.55;101178.97;6220175;22;47387;-81
2022/06/27 01:23:34;;;;;;;;;3.00;3.00;;;;;18.38;56.63;101175.44;6248349;22;45334;-80
2022/06/27 01:26:00;;;;;;;;;4.00;3.00;;;;;18.34;56.54;101179.97;6248837;22;45311;-81
2022/06/27 01:28:26;;;;;;;;;4.00;4.00;;;;;18.36;56.62;101182.59;6246718;22;45426;-81
2022/06/27 01:30:52;;;;;;;;;3.00;3.00;;;;;18.37;56.80;101169.22;6248648;22;46346;-81
2022/06/27 01:33:17;;;;;;;;;2.00;2.00;;;;;18.39;56.52;101164.72;6248556;22;45567;-81
2022/06/27 01:35:43;;;;;;;;;4.00;3.00;;;;;18.39;56.70;101164.72;6248996;22;45201;-81
2022/06/27 01:38:08;;;;;;;;;5.00;3.33;;;;;18.40;56.75;101169.13;6248504;22;45096;-80
2022/06/27 01:40:34;;;;;;;;;3.00;3.00;;;;;18.43;56.72;101177.03;6246912;22;47554;-80
2022/06/27 01:43:00;;;;;;;;;4.00;3.67;;;;;18.43;56.67;101186.84;6248789;22;45216;-81
2022/06/27 01:45:25;;;;;;;;;2.67;2.67;;;;;18.43;56.23;101178.84;6248836;22;45144;-80
2022/06/27 01:47:50;;;;;;;;;2.67;1.67;;;;;18.42;56.50;101183.31;6248549;22;45486;-80
2022/06/27 01:50:19;;;;;;;;;1.67;1.67;;;;;18.42;56.64;101190.44;6220555;22;47894;-80
2022/06/27 01:52:49;;;;;;;;;5.00;4.00;;;;;18.42;56.39;101185.09;6220284;22;45349;-80
2022/06/27 01:55:14;;;;;;;;;2.33;2.00;;;;;18.37;55.85;101171.91;6220711;22;45306;-80
2022/06/27 01:57:41;;;;;;;;;2.33;2.33;;;;;18.36;56.14;101171.91;6220969;22;45388;-79
2022/06/27 02:00:07;;;;;;;;;2.33;2.00;;;;;18.37;56.23;101174.56;6220949;22;48234;-80
2022/06/27 02:02:33;;;;;;;;;3.00;3.00;;;;;18.35;56.13;101167.53;6247896;22;45379;-79
2022/06/27 02:04:59;;;;;;;;;3.00;3.00;;;;;18.35;56.25;101164.84;6248886;22;45181;-81
2022/06/27 02:07:25;;;;;;;;;2.33;2.33;;;;;18.36;56.30;101162.13;6248372;22;45272;-80
2022/06/27 02:09:50;;;;;;;;;3.67;3.67;;;;;18.35;56.41;101159.53;6247943;22;45398;-81
2022/06/27 02:12:19;;;;;;;;;4.33;3.00;;;;;18.35;56.11;101165.72;6247903;22;45244;-81
2022/06/27 02:14:49;;;;;;;;;3.00;3.00;;;;;18.36;55.95;101163.94;6246736;22;45280;-80
2022/06/27 02:17:16;;;;;;;;;3.00;3.00;;;;;18.32;56.16;101152.50;6248261;22;45342;-80
2022/06/27 02:19:41;;;;;;;;;4.00;3.67;;;;;18.33;56.51;101148.03;6246139;22;47181;-80
2022/06/27 02:22:08;;;;;;;;;1.33;1.33;;;;;18.29;56.36;101137.47;6248416;22;45251;-80
2022/06/27 02:24:37;;;;;;;;;2.00;1.00;;;;;18.28;55.99;101150.81;6248584;22;45162;-80
2022/06/27 02:27:04;;;;;;;;;3.00;2.00;;;;;18.25;56.26;101162.44;6247974;22;45301;-80
2022/06/27 02:29:29;;;;;;;;;3.00;3.00;;;;;18.25;56.22;101165.09;6247663;22;47456;-80
2022/06/27 02:31:55;;;;;;;;;5.33;2.00;;;;;18.25;56.48;101167.78;6247626;22;45248;-80
2022/06/27 02:34:20;;;;;;;;;1.67;1.67;;;;;18.25;56.07;101175.78;6221011;22;45309;-80
2022/06/27 02:36:49;;;;;;;;;2.00;2.00;;;;;18.27;56.38;101183.72;6220726;22;45249;-80
2022/06/27 02:39:20;;;;;;;;;2.00;2.00;;;;;18.29;56.17;101176.56;6220151;22;48278;-80
2022/06/27 02:41:47;;;;;;;;;2.33;2.33;;;;;18.28;56.57;101170.38;6248245;22;45204;-80
2022/06/27 02:44:14;;;;;;;;;3.00;3.00;;;;;18.27;56.45;101176.59;6220864;22;45276;-80
2022/06/27 02:46:40;;;;;;;;;1.67;1.67;;;;;18.26;56.20;101166.88;6247898;22;45244;-80
2022/06/27 02:49:07;;;;;;;;;3.00;3.00;;;;;18.27;56.37;101178.41;6245971;22;47092;-80
2022/06/27 02:51:41;;;;;;;;;2.67;2.00;;;;;18.27;56.31;101176.59;6248225;22;45331;-80
2022/06/27 02:54:07;;;;;;;;;3.00;3.00;;;;;18.29;56.52;101179.25;6246172;22;45410;-80
2022/06/27 02:56:35;;;;;;;;;3.00;3.00;;;;;18.28;56.68;101178.38;6247919;22;45357;-80
2022/06/27 02:59:13;;;;;;;;;3.00;3.00;;;;;18.27;56.75;101179.28;6246195;22;47153;-80
2022/06/27 03:01:43;;;;;;;;;3.00;3.00;;;;;18.29;56.56;101173.91;6248058;22;45173;-80
2022/06/27 03:04:08;;;;;;;;;2.67;2.67;;;;;18.31;56.75;101177.41;6220511;22;45242;-80
2022/06/27 03:06:34;;;;;;;;;3.67;3.67;;;;;18.31;56.69;101180.06;6220530;22;45304;-80
2022/06/27 03:08:59;;;;;;;;;3.33;2.33;;;;;18.32;56.52;101184.47;6246986;22;47972;-80
2022/06/27 03:11:26;;;;;;;;;5.00;5.00;;;;;18.35;56.78;101180.84;6248147;22;45365;-80
2022/06/27 03:13:53;;;;;;;;;5.33;4.67;;;;;18.36;56.75;101179.91;6245960;22;45313;-80
2022/06/27 03:16:20;;;;;;;;;3.00;3.00;;;;;18.38;56.43;101191.41;6221089;22;45460;-80
2022/06/27 03:18:46;;;;;;;;;3.33;3.33;;;;;18.39;56.45;101190.50;6220917;22;47285;-80
2022/06/27 03:21:12;;;;;;;;;4.00;3.00;;;;;18.38;56.42;101181.63;6247499;22;45461;-81
2022/06/27 03:23:38;;;;;;;;;4.67;3.67;;;;;18.39;56.59;101186.06;6247976;22;45324;-80
2022/06/27 03:26:04;;;;;;;;;5.00;4.00;;;;;18.39;56.62;101185.16;6220279;22;45583;-81
2022/06/27 03:28:29;;;;;;;;;4.00;4.00;;;;;18.40;56.33;101173.59;6247768;22;45360;-80
2022/06/27 03:30:55;;;;;;;;;5.67;5.00;;;;;18.40;56.26;101170.94;6220602;22;45262;-80
2022/06/27 03:33:20;;;;;;;;;3.67;3.67;;;;;18.42;56.35;101172.63;6246066;22;45399;-80
2022/06/27 03:35:46;;;;;;;;;5.00;4.00;;;;;18.39;56.58;101179.81;6248306;22;45186;-80
2022/06/27 03:38:14;;;;;;;;;3.67;3.67;;;;;18.40;56.56;101173.59;6219890;22;47529;-80
2022/06/27 03:40:40;;;;;;;;;4.67;4.67;;;;;18.39;56.33;101166.50;6247986;22;45237;-79
2022/06/27 03:43:05;;;;;;;;;3.00;3.00;;;;;18.40;56.24;101160.25;6247857;22;45401;-81
2022/06/27 03:45:30;;;;;;;;;3.67;3.00;;;;;18.42;56.63;101153.09;6219632;22;45412;-81
2022/06/27 03:48:01;;;;;;;;;2.00;2.00;;;;;18.42;56.13;101155.78;6247677;22;45478;-80
2022/06/27 03:50:27;;;;;;;;;4.00;3.00;;;;;18.44;56.38;101157.47;6220357;22;46010;-80
2022/06/27 03:52:54;;;;;;;;;2.00;2.00;;;;;18.45;56.13;101163.66;6247446;22;45245;-80
2022/06/27 03:55:20;;;;;;;;;3.67;3.67;;;;;18.45;56.21;101161.88;6245860;22;45463;-81
2022/06/27 03:57:57;;;;;;;;;4.00;3.00;;;;;18.48;56.17;101166.25;6247499;22;45466;-80
2022/06/27 04:00:25;;;;;;;;;4.33;3.33;;;;;18.46;56.13;101158.28;6245718;22;45372;-80
2022/06/27 04:02:51;;;;;;;;;2.00;2.00;;;;;18.47;56.27;101172.47;6247657;22;45316;-80
2022/06/27 04:05:17;;;;;;;;;3.67;3.67;;;;;18.45;56.55;101174.34;6246054;22;45423;-81
2022/06/27 04:07:42;;;;;;;;;3.67;2.67;;;;;18.46;56.53;101182.28;6219241;22;46921;-81
2022/06/27 04:10:10;;;;;;;;;3.67;3.00;;;;;18.43;56.51;101178.84;6247593;22;45227;-79
2022/06/27 04:12:36;;;;;;;;;4.33;4.33;;;;;18.42;56.83;101183.31;6245712;22;45177;-81
2022/06/27 04:15:03;;;;;;;;;3.67;3.67;;;;;18.45;56.40;101195.66;6220245;22;45411;-80
2022/06/27 04:17:28;;;;;;;;;2.33;2.00;;;;;18.43;56.37;101198.38;6247312;22;47590;-80
2022/06/27 04:19:53;;;;;;;;;7.00;4.00;;;;;18.44;56.19;101194.81;6247138;22;45383;-80
2022/06/27 04:22:19;;;;;;;;;2.33;2.33;;;;;18.47;56.33;101210.72;6247540;22;45778;-80
2022/06/27 04:24:44;;;;;;;;;3.00;3.00;;;;;18.47;56.17;101216.03;6247618;22;45508;-81
2022/06/27 04:27:10;;;;;;;;;2.00;1.00;;;;;18.49;56.12;101224.84;6220300;22;46966;-81
2022/06/27 04:29:35;;;;;;;;;3.33;2.67;;;;;18.50;56.56;101225.75;6247476;22;45172;-80
2022/06/27 04:32:01;;;;;;;;;2.67;2.67;;;;;18.51;55.94;101222.16;6247841;22;45339;-80
2022/06/27 04:34:27;;;;;;;;;2.00;2.00;;;;;18.49;56.10;101226.63;6220035;22;45477;-80
2022/06/27 04:36:52;;;;;;;;;3.00;3.00;;;;;18.51;56.40;101244.34;6245677;22;46811;-81
2022/06/27 04:39:19;;;;;;;;;4.00;3.00;;;;;18.52;56.01;101246.09;6220473;22;45709;-81
2022/06/27 04:41:46;;;;;;;;;2.00;2.00;;;;;18.54;56.07;101242.50;6248794;22;45136;-80
2022/06/27 04:44:12;;;;;;;;;3.00;3.00;;;;;18.55;56.25;101250.47;6220570;22;45411;-81
2022/06/27 04:46:39;;;;;;;;;2.67;2.67;;;;;18.56;56.17;101246.00;6246025;22;47139;-80
2022/06/27 04:49:05;;;;;;;;;4.00;4.00;;;;;18.57;55.71;101251.28;6248120;22;45190;-80
2022/06/27 04:51:30;;;;;;;;;3.67;3.33;;;;;18.58;55.66;101242.38;6245647;22;45329;-79
2022/06/27 04:53:56;;;;;;;;;3.33;3.33;;;;;18.57;55.87;101235.28;6245708;22;45346;-80
2022/06/27 04:56:22;;;;;;;;;4.00;4.00;;;;;18.61;55.91;101231.63;6220465;22;46948;-80
2022/06/27 04:58:47;;;;;;;;;3.00;3.00;;;;;18.62;55.74;101224.50;6246385;22;45123;-80
2022/06/27 05:01:12;;;;;;;;;2.67;2.33;;;;;18.67;55.92;101231.44;6221123;22;45197;-80
2022/06/27 05:03:38;;;;;;;;;4.00;4.00;;;;;18.70;55.70;101228.69;6221748;22;45170;-81
2022/06/27 05:06:04;;;;;;;;;3.00;3.00;;;;;18.71;55.49;101214.44;6220728;22;47724;-81
2022/06/27 05:08:29;;;;;;;;;2.33;2.33;;;;;18.72;55.47;101213.50;6246298;22;45120;-81
2022/06/27 05:10:54;;;;;;;;;2.00;2.00;;;;;18.75;55.61;101203.72;6248688;22;45455;-80
2022/06/27 05:13:20;;;;;;;;;3.00;2.00;;;;;18.75;55.84;101201.03;6248047;22;45308;-80
2022/06/27 05:15:45;;;;;;;;;6.00;4.00;;;;;18.77;55.47;101204.53;6221019;22;47300;-81
2022/06/27 05:18:14;;;;;;;;;3.00;2.33;;;;;18.75;55.68;101209.91;6249070;22;45150;-81
2022/06/27 05:20:39;;;;;;;;;4.00;4.00;;;;;18.78;55.32;101214.28;6246547;22;45297;-80
2022/06/27 05:23:05;;;;;;;;;3.33;2.67;;;;;18.75;55.19;101207.25;6247897;22;45276;-80
2022/06/27 05:25:30;;;;;;;;;4.00;4.00;;;;;18.75;55.67;101211.72;6221140;22;46874;-81
2022/06/27 05:27:58;;;;;;;;;11.00;10.25;;;;;18.72;55.39;101220.66;6248497;22;45199;-84
2022/06/27 05:30:23;;;;;;;;;4.67;4.33;;;;;18.72;55.80;101207.31;6246925;22;45190;-83
2022/06/27 05:32:48;;;;;;;;;5.33;5.00;;;;;18.75;55.79;101193.03;6219936;22;45506;-84
2022/06/27 05:35:14;;;;;;;;;2.67;2.67;;;;;18.79;56.16;101219.59;6220862;22;47791;-84
2022/06/27 05:37:43;;;;;;;;;2.00;2.00;;;;;18.83;55.77;101231.03;6246366;22;45202;-84
2022/06/27 05:40:09;;;;;;;;;3.67;3.00;;;;;18.83;55.69;101215.00;6220988;22;45399;-84
2022/06/27 05:42:44;;;;;;;;;;;;;;;;;;;;;
2022/06/27 05:45:21;;;;;;;;;;;;;;;;;;;;;
2022/06/27 05:47:56;;;;;;;;;;;;;;;;;;;;;
2022/06/27 05:50:32;;;;;;;;;;;;;;;;;;;;;
2022/06/27 05:53:09;;;;;;;;;;;;;;;;;;;;;
2022/06/27 05:56:07;;;;;;;;;;;;;;;;;;;;;
2022/06/27 05:59:24;;;;;;;;;;;;;;;;;;;;;
2022/06/27 06:01:53;;;;;;;;;;;;;;;;;;;;;
2022/06/27 06:04:30;;;;;;;;;;;;;;;;;;;;;
2022/06/27 06:06:55;;;;;;;;;3.33;3.33;;;;;18.93;55.62;101254.72;6245891;22;75156;-83
2022/06/27 06:09:21;;;;;;;;;3.33;2.00;;;;;18.91;55.12;101261.00;6220367;22;45865;-83
2022/06/27 06:11:48;;;;;;;;;2.67;2.33;;;;;18.92;55.44;101278.75;6220464;22;45349;-83
2022/06/27 06:14:16;;;;;;;;;2.00;2.00;;;;;18.90;55.39;101272.63;6248201;22;45290;-83
2022/06/27 06:16:42;;;;;;;;;2.00;2.00;;;;;18.89;55.49;101274.38;6220740;22;48200;-82
2022/06/27 06:19:09;;;;;;;;;3.00;3.00;;;;;18.87;55.09;101275.34;6220297;22;46031;-80
2022/06/27 06:21:34;;;;;;;;;4.00;3.00;;;;;18.88;55.50;101278.00;6247981;22;45220;-81
2022/06/27 06:24:00;;;;;;;;;2.67;2.67;;;;;18.91;55.32;101264.56;6247962;22;45090;-83
2022/06/27 06:26:26;;;;;;;;;2.00;2.00;;;;;18.95;55.50;101254.66;6246338;22;47550;-82
2022/06/27 06:28:53;;;;;;;;;2.00;2.00;;;;;18.96;55.03;101267.09;6220132;22;45673;-82
2022/06/27 06:31:22;;;;;;;;;2.00;2.00;;;;;18.99;55.31;101284.81;6220473;22;45265;-81
2022/06/27 06:33:52;;;;;;;;;3.33;2.67;;;;;19.01;55.27;101299.84;6220471;22;45336;-81
2022/06/27 06:36:21;;;;;;;;;3.33;3.33;;;;;19.03;55.54;101291.78;6247173;22;45375;-81
2022/06/27 06:38:49;;;;;;;;;5.00;4.00;;;;;19.06;55.69;101295.25;6247583;22;45164;-80
2022/06/27 06:41:14;;;;;;;;;3.00;3.00;;;;;19.10;55.62;101298.69;6247955;22;45159;-80
2022/06/27 06:43:40;;;;;;;;;3.33;2.00;;;;;19.13;55.44;101314.59;6220275;22;45976;-80
2022/06/27 06:46:06;;;;;;;;;3.00;3.00;;;;;19.09;55.23;101320.97;6245776;22;47303;-83
2022/06/27 06:48:32;;;;;;;;;2.67;1.67;;;;;19.11;55.42;101327.13;6248006;22;45259;-81
2022/06/27 06:50:58;;;;;;;;;5.33;4.00;;;;;19.13;55.49;101327.94;6220044;22;45414;-81
2022/06/27 06:53:23;;;;;;;;;3.00;3.00;;;;;19.13;55.75;101335.97;6219779;22;45324;-80
2022/06/27 06:55:49;;;;;;;;;3.67;3.00;;;;;19.19;55.95;101333.09;6248039;22;45335;-81
2022/06/27 06:58:15;;;;;;;;;2.00;2.00;;;;;19.28;55.54;101338.19;6247918;22;45266;-81
2022/06/27 07:00:41;;;;;;;;;3.00;3.00;;;;;19.36;54.98;101348.63;6247620;22;45640;-80
2022/06/27 07:03:07;;;;;;;;;4.00;2.00;;;;;19.43;55.51;101347.50;6220501;22;45443;-82
2022/06/27 07:05:34;;;;;;;;;3.67;3.67;;;;;19.51;55.16;101352.59;6247583;22;45168;-81
2022/06/27 07:08:01;;;;;;;;;3.67;3.00;;;;;19.59;54.78;101354.13;6219901;22;45199;-82
2022/06/27 07:10:28;;;;;;;;;4.00;4.00;;;;;19.66;54.78;101359.28;6239686;22;45738;-81
2022/06/27 07:12:53;;;;;;;;;3.00;3.00;;;;;19.66;54.54;101359.28;6244484;22;45510;-81
2022/06/27 07:15:19;;;;;;;;;3.67;3.67;;;;;19.62;54.47;101363.84;6245212;22;45363;-84
2022/06/27 07:17:49;;;;;;;;;3.00;3.00;;;;;19.57;54.42;101380.00;6245527;22;45373;-82
2022/06/27 07:20:18;;;;;;;;;3.67;3.67;;;;;19.49;54.42;101381.19;6218477;22;45297;-84
2022/06/27 07:22:45;;;;;;;;;3.33;3.33;;;;;19.39;54.56;101391.25;6217636;22;46248;-83
2022/06/27 07:25:10;;;;;;;;;6.33;5.67;;;;;19.29;54.57;101398.66;6245221;22;45604;-83
2022/06/27 07:27:37;;;;;;;;;3.00;3.00;;;;;19.21;54.77;101397.13;6218564;22;45339;-82
2022/06/27 07:30:04;;;;;;;;;3.67;3.67;;;;;19.14;55.07;101397.31;6218176;22;45298;-83
2022/06/27 07:32:31;;;;;;;;;3.67;2.67;;;;;19.17;55.45;101391.03;6245273;22;45299;-81
2022/06/27 07:34:58;;;;;;;;;3.33;3.00;;;;;19.18;55.05;101396.28;6243191;22;47246;-82
2022/06/27 07:37:25;;;;;;;;;3.67;3.67;;;;;19.21;55.10;101387.31;6217771;22;45715;-83
2022/06/27 07:39:50;;;;;;;;;5.33;4.67;;;;;19.26;55.64;101376.53;6247195;22;45291;-83
2022/06/27 07:42:16;;;;;;;;;2.33;2.33;;;;;19.37;55.03;101383.28;6219794;22;45521;-83
2022/06/27 07:44:42;;;;;;;;;4.00;4.00;;;;;19.48;54.81;101380.28;6245483;22;47934;-83
2022/06/27 07:47:07;;;;;;;;;3.67;3.67;;;;;19.55;54.72;101378.31;6219416;22;45277;-80
2022/06/27 07:49:33;;;;;;;;;3.33;3.33;;;;;19.59;54.17;101383.53;6247594;22;45117;-80
2022/06/27 07:51:59;;;;;;;;;2.67;2.67;;;;;19.71;54.02;101389.44;6247470;22;45167;-79
2022/06/27 07:54:25;;;;;;;;;5.00;4.00;;;;;19.77;53.51;101395.44;6219504;22;46949;-79
2022/06/27 07:56:51;;;;;;;;;3.33;2.67;;;;;19.85;53.68;101400.56;6247507;22;45179;-79
2022/06/27 07:59:17;;;;;;;;;3.67;2.67;;;;;19.91;53.25;101394.13;6219809;22;45395;-79
2022/06/27 08:01:43;;;;;;;;;1.33;1.33;;;;;19.93;52.91;101413.66;6219415;22;45802;-80
2022/06/27 08:04:11;;;;;;;;;2.67;2.67;;;;;19.92;52.74;101404.78;6219831;22;47968;-80
2022/06/27 08:06:38;;;;;;;;;3.00;3.00;;;;;19.92;52.56;101403.91;6219353;22;45886;-80
2022/06/27 08:09:06;;;;;;;;;3.00;3.00;;;;;19.92;52.90;101409.25;6247119;22;45194;-80
2022/06/27 08:11:34;;;;;;;;;2.67;2.00;;;;;19.96;52.63;101408.22;6247087;22;45460;-79
2022/06/27 08:14:05;;;;;;;;;4.67;3.67;;;;;19.99;52.95;101405.44;6246592;22;46188;-78
2022/06/27 08:16:32;;;;;;;;;1.67;1.67;;;;;20.00;52.28;101416.09;6219348;22;45243;-77
2022/06/27 08:18:58;;;;;;;;;5.00;4.00;;;;;19.97;52.82;101415.34;6219526;22;45306;-81
2022/06/27 08:21:27;;;;;;;;;3.33;3.33;;;;;19.91;52.60;101421.72;6246676;22;45390;-82
2022/06/27 08:23:53;;;;;;;;;3.00;3.00;;;;;19.80;52.40;101424.72;6218759;22;47336;-82
2022/06/27 08:26:20;;;;;;;;;2.67;2.00;;;;;19.68;52.60;101446.50;6219739;22;45218;-84
2022/06/27 08:28:47;;;;;;;;;3.00;3.00;;;;;19.54;52.80;101467.34;6220067;22;45297;-84
2022/06/27 08:31:14;;;;;;;;;2.00;2.00;;;;;19.36;53.41;101475.00;6194773;22;45569;-83
2022/06/27 08:33:40;;;;;;;;;2.00;2.00;;;;;19.21;54.30;101467.41;6245864;22;47223;-82
2022/06/27 08:36:07;;;;;;;;;3.00;2.00;;;;;19.09;55.12;101462.44;6247484;22;45251;-83
2022/06/27 08:38:39;;;;;;;;;2.00;2.00;;;;;19.02;55.69;101444.81;6220483;22;45321;-82
2022/06/27 08:41:04;;;;;;;;;4.00;4.00;;;;;19.00;56.08;101425.31;6221353;22;45403;-82
2022/06/27 08:43:30;;;;;;;;;3.33;3.33;;;;;19.02;56.65;101408.34;6248515;22;46235;-80
2022/06/27 08:45:58;;;;;;;;;5.33;3.00;;;;;19.12;56.80;101415.16;6247188;22;45630;-79
2022/06/27 08:48:23;;;;;;;;;2.67;2.67;;;;;19.19;57.34;101402.50;6220049;22;45194;-79
2022/06/27 08:50:50;;;;;;;;;6.00;4.00;;;;;19.23;57.19;101406.84;6219553;22;45443;-79
2022/06/27 08:53:17;;;;;;;;;3.00;3.00;;;;;19.29;57.27;101405.78;6246439;22;46045;-79
2022/06/27 08:55:46;;;;;;;;;4.67;4.00;;;;;19.35;57.24;101409.19;6246821;22;45192;-78
2022/06/27 08:58:12;;;;;;;;;3.67;3.67;;;;;19.45;57.26;101407.09;6219763;22;45359;-80
2022/06/27 09:00:40;;;;;;;;;4.00;3.67;;;;;19.54;57.01;101408.59;6243912;22;45795;-80
2022/06/27 09:03:18;;;;;;;;;4.00;4.00;;;;;19.67;56.24;101410.00;6218081;22;46940;-84
2022/06/27 09:05:57;;;;;;;;;5.00;3.67;;;;;19.73;56.55;101407.16;6218241;22;45351;-79
2022/06/27 09:08:27;;;;;;;;;3.67;3.33;;;;;19.73;56.69;101419.66;6246180;22;45181;-78
2022/06/27 09:10:53;;;;;;;;;2.67;2.00;;;;;19.68;56.00;101422.47;6219172;22;45455;-78
2022/06/27 09:13:19;;;;;;;;;2.33;2.33;;;;;19.66;55.76;101418.94;6246549;22;45718;-77
2022/06/27 09:15:49;;;;;;;;;3.00;3.00;;;;;19.70;55.46;101420.63;6246911;22;45366;-79
2022/06/27 09:18:18;;;;;;;;;5.00;2.00;;;;;19.72;55.00;101415.22;6219179;22;45311;-79
2022/06/27 09:20:58;;;;;;;;;5.00;5.00;;;;;19.77;55.03;101422.16;6246661;22;45374;-81
2022/06/27 09:23:49;;;;;;;;;3.00;3.00;;;;;19.86;55.74;101412.09;6244450;22;47403;-80
2022/06/27 09:26:15;;;;;;;;;2.33;1.67;;;;;19.94;55.40;101423.44;6219718;22;45418;-78
2022/06/27 09:28:40;;;;;;;;;2.67;2.67;;;;;19.99;55.08;101421.47;6246747;22;45315;-76
2022/06/27 09:31:10;;;;;;;;;2.33;2.00;;;;;20.04;54.45;101425.75;6219061;22;45466;-76
2022/06/27 09:33:38;;;;;;;;;3.00;3.00;;;;;20.12;54.49;101420.16;6246532;22;46203;-77
2022/06/27 09:36:14;;;;;;;;;1.33;0.67;;;;;20.18;54.29;101419.09;6246475;22;45364;-77
2022/06/27 09:38:42;;;;;;;;;2.67;2.00;;;;;20.22;53.42;101410.06;6246490;22;45336;-77
2022/06/27 09:41:12;;;;;;;;;2.67;2.67;;;;;20.26;53.04;101409.91;6219318;22;45379;-77
2022/06/27 09:43:42;;;;;;;;;4.00;2.00;;;;;20.32;52.76;101421.31;6247865;22;46328;-77
2022/06/27 09:46:08;;;;;;;;;2.00;2.00;;;;;20.33;52.58;101426.59;6247394;22;45428;-78
2022/06/27 09:48:35;;;;;;;;;2.67;2.67;;;;;20.34;52.37;101436.41;6220453;22;45200;-76
2022/06/27 09:51:02;;;;;;;;;2.00;2.00;;;;;20.37;52.37;101424.69;6247747;22;45269;-78
2022/06/27 09:53:28;;;;;;;;;1.67;1.67;;;;;20.48;52.09;101428.78;6246960;22;45394;-77
2022/06/27 09:56:05;;;;;;;;;;;;;;;;;;;;;
2022/06/27 09:58:33;;;;;;;;;2.33;2.33;;;;;20.74;50.77;101423.47;6245795;22;68353;-79
2022/06/27 10:01:00;;;;;;;;;2.33;2.00;;;;;20.80;50.46;101417.94;6246828;22;45183;-79
2022/06/27 10:03:32;;;;;;;;;0.67;0.67;;;;;20.91;50.74;101418.41;6219187;22;47509;-79
2022/06/27 10:06:01;;;;;;;;;0.67;0.67;;;;;21.02;49.03;101424.25;6247020;22;45242;-79
2022/06/27 10:08:27;;;;;;;;;1.67;1.67;;;;;21.07;47.97;101429.44;6219715;22;45674;-79
2022/06/27 10:11:06;;;;;;;;;1.67;1.00;;;;;21.06;47.10;101428.56;6218860;22;45360;-79
2022/06/27 10:13:33;;;;;;;;;1.33;1.33;;;;;21.09;47.61;101425.78;6245834;22;46519;-78
2022/06/27 10:16:04;;;;;;;;;0.00;0.00;;;;;21.13;46.66;101421.16;6246825;22;45259;-78
2022/06/27 10:19:02;;;;;;;;;1.00;1.00;;;;;21.20;45.15;101422.69;6247901;22;45354;-78
2022/06/27 10:21:31;;;;;;;;;1.67;0.00;;;;;21.26;45.40;101426.94;6218880;22;45290;-79
2022/06/27 10:24:18;;;;;;;;;0.67;0.67;;;;;21.34;44.20;101428.41;6246675;22;45479;-78
2022/06/27 10:26:44;;;;;;;;;1.00;1.00;;;;;21.43;44.50;101432.56;6214956;22;45394;-80
2022/06/27 10:29:32;;;;;;;;;1.67;1.67;;;;;21.56;44.78;101427.63;6246108;22;45399;-80
2022/06/27 10:31:58;;;;;;;;;1.00;1.00;;;;;21.70;44.11;101417.22;6219837;22;45448;-81
2022/06/27 10:34:39;;;;;;;;;1.00;1.00;;;;;21.77;43.99;101429.47;6248026;22;45455;-80
2022/06/27 10:37:25;;;;;;;;;2.00;1.00;;;;;21.82;44.08;101425.75;6220086;22;45264;-80
2022/06/27 10:39:52;;;;;;;;;1.00;1.00;;;;;21.90;44.08;101421.81;6219574;22;45415;-81
2022/06/27 10:42:48;;;;;;;;;1.00;1.00;;;;;22.00;43.81;101422.31;6246993;22;45213;-80
2022/06/27 10:45:20;;;;;;;;;3.67;2.67;;;;;22.10;43.59;101420.97;6247072;22;45499;-80
2022/06/27 10:47:55;;;;;;;;;2.00;1.00;;;;;22.19;43.69;101426.03;6247225;22;45401;-80
2022/06/27 10:50:23;;;;;;;;;2.67;0.67;;;;;22.30;43.04;101420.22;6246965;22;45398;-80
2022/06/27 10:52:49;;;;;;;;;1.67;1.00;;;;;22.35;42.64;101423.56;6246619;22;45230;-79
2022/06/27 10:55:30;;;;;;;;;2.00;1.00;;;;;22.44;41.85;101417.81;6218964;22;46914;-79
2022/06/27 10:57:57;;;;;;;;;1.33;1.33;;;;;22.56;41.87;101418.22;6219566;22;45793;-81
2022/06/27 11:00:34;;;;;;;;;1.00;1.00;;;;;22.68;41.87;101417.69;6219654;22;45170;-79
2022/06/27 11:03:23;;;;;;;;;3.00;2.00;;;;;22.75;41.48;101426.34;6247114;22;45428;-79
2022/06/27 11:05:54;;;;;;;;;1.00;1.00;;;;;22.83;40.73;101427.78;6219356;22;47053;-81
2022/06/27 11:08:22;;;;;;;;;1.00;1.00;;;;;22.88;40.82;101420.38;6218863;22;45245;-81
2022/06/27 11:10:47;;;;;;;;;1.00;1.00;;;;;22.97;39.65;101419.13;6247192;22;45411;-79
2022/06/27 11:13:42;;;;;;;;;1.00;1.00;;;;;23.10;39.70;101416.78;6246494;22;45425;-79
2022/06/27 11:16:10;;;;;;;;;1.00;1.00;;;;;23.26;38.89;101414.25;6246986;22;46014;-79
2022/06/27 11:18:41;;;;;;;;;1.00;1.00;;;;;23.36;38.34;101412.88;6245777;22;45248;-79
2022/06/27 11:21:06;;;;;;;;;1.33;1.00;;;;;23.46;38.86;101416.88;6246037;22;45348;-80
2022/06/27 11:23:49;;;;;;;;;1.00;1.00;;;;;23.48;38.43;101415.00;6245891;22;45494;-80
2022/06/27 11:26:14;;;;;;;;;0.00;0.00;;;;;23.48;37.92;101415.00;6218626;22;46930;-80
2022/06/27 11:34:09;;;;;;;;;0.33;0.33;;;;;23.55;36.74;101413.78;6245095;22;45292;-80
2022/06/27 11:36:36;;;;;;;;;1.33;1.00;;;;;23.67;36.68;101411.44;6244890;22;46324;-79
2022/06/27 11:39:02;;;;;;;;;1.00;0.33;;;;;23.77;36.07;101419.03;6246107;22;45497;-78
2022/06/27 11:41:30;;;;;;;;;1.00;0.00;;;;;23.86;36.44;101414.16;6246377;22;45328;-79
2022/06/27 11:44:12;;;;;;;;;2.00;1.00;;;;;23.99;35.92;101410.78;6218871;22;45304;-79
2022/06/27 11:46:46;;;;;;;;;0.00;0.00;;;;;24.15;35.27;101405.50;6245361;22;45331;-80
2022/06/27 11:49:14;;;;;;;;;0.67;0.67;;;;;24.32;35.50;101406.47;6216783;22;45245;-80